sensor_id;sensor_type;location;lat;lon;timestamp;pressure;altitude;pressure_sealevel;temperature;humidity
62708;BME280;48769;51.624;5.886;2023-05-20T00:01:30;102203.06;;;13.38;76.40
62708;BME280;48769;51.624;5.886;2023-05-20T00:03:55;102205.09;;;13.31;76.90
62708;BME280;48769;51.624;5.886;2023-05-20T00:06:21;102205.09;;;13.31;76.82
62708;BME280;48769;51.624;5.886;2023-05-20T00:08:47;102204.31;;;13.29;77.23
62708;BME280;48769;51.624;5.886;2023-05-20T00:11:12;102201.88;;;13.23;77.63
62708;BME280;48769;51.624;5.886;2023-05-20T00:13:37;102209.97;;;13.20;77.71
62708;BME280;48769;51.624;5.886;2023-05-20T00:16:04;102209.13;;;13.20;77.98
62708;BME280;48769;51.624;5.886;2023-05-20T00:18:29;102205.91;;;13.12;78.84
62708;BME280;48769;51.624;5.886;2023-05-20T00:20:56;102209.66;;;13.06;79.14
62708;BME280;48769;51.624;5.886;2023-05-20T00:23:22;102216.00;;;13.02;79.80
62708;BME280;48769;51.624;5.886;2023-05-20T00:25:48;102208.00;;;13.03;79.62
62708;BME280;48769;51.624;5.886;2023-05-20T00:28:13;102218.84;;;12.97;80.27
62708;BME280;48769;51.624;5.886;2023-05-20T00:30:39;102216.38;;;12.93;80.40
62708;BME280;48769;51.624;5.886;2023-05-20T00:33:06;102215.59;;;12.91;80.86
62708;BME280;48769;51.624;5.886;2023-05-20T00:35:31;102205.75;;;12.93;80.82
62708;BME280;48769;51.624;5.886;2023-05-20T00:37:57;102204.53;;;12.79;81.58
62708;BME280;48769;51.624;5.886;2023-05-20T00:40:22;102203.47;;;12.83;81.55
62708;BME280;48769;51.624;5.886;2023-05-20T00:42:49;102204.41;;;12.82;81.77
62708;BME280;48769;51.624;5.886;2023-05-20T00:45:14;102199.22;;;12.79;81.91
62708;BME280;48769;51.624;5.886;2023-05-20T00:47:41;102198.59;;;12.73;82.48
62708;BME280;48769;51.624;5.886;2023-05-20T00:50:07;102201.25;;;12.73;82.26
62708;BME280;48769;51.624;5.886;2023-05-20T00:52:34;102194.16;;;12.73;82.50
62708;BME280;48769;51.624;5.886;2023-05-20T00:55:01;102195.16;;;12.71;82.68
62708;BME280;48769;51.624;5.886;2023-05-20T00:57:26;102203.28;;;12.66;83.27
62708;BME280;48769;51.624;5.886;2023-05-20T00:59:52;102197.09;;;12.66;83.18
62708;BME280;48769;51.624;5.886;2023-05-20T01:02:17;102193.81;;;12.59;83.88
62708;BME280;48769;51.624;5.886;2023-05-20T01:04:43;102193.81;;;12.59;83.79
62708;BME280;48769;51.624;5.886;2023-05-20T01:07:12;102191.41;;;12.53;84.52
62708;BME280;48769;51.624;5.886;2023-05-20T01:09:39;102196.81;;;12.50;84.85
62708;BME280;48769;51.624;5.886;2023-05-20T01:12:15;102194.13;;;12.51;85.02
62708;BME280;48769;51.624;5.886;2023-05-20T01:14:48;102193.63;;;12.42;85.72
62708;BME280;48769;51.624;5.886;2023-05-20T01:17:15;102193.72;;;12.38;86.02
62708;BME280;48769;51.624;5.886;2023-05-20T01:19:45;102197.16;;;12.40;85.95
62708;BME280;48769;51.624;5.886;2023-05-20T01:22:13;102189.22;;;12.40;85.80
62708;BME280;48769;51.624;5.886;2023-05-20T01:24:43;102190.16;;;12.39;85.95
62708;BME280;48769;51.624;5.886;2023-05-20T01:27:10;102184.16;;;12.34;86.56
62708;BME280;48769;51.624;5.886;2023-05-20T01:29:38;102189.50;;;12.33;86.82
62708;BME280;48769;51.624;5.886;2023-05-20T01:32:30;102190.38;;;12.33;87.07
62708;BME280;48769;51.624;5.886;2023-05-20T01:34:56;102184.38;;;12.28;87.30
62708;BME280;48769;51.624;5.886;2023-05-20T01:37:24;102175.44;;;12.31;87.09
62708;BME280;48769;51.624;5.886;2023-05-20T01:39:52;102182.50;;;12.32;87.36
62708;BME280;48769;51.624;5.886;2023-05-20T01:42:18;102184.38;;;12.28;87.84
62708;BME280;48769;51.624;5.886;2023-05-20T01:44:44;102180.00;;;12.27;88.08
62708;BME280;48769;51.624;5.886;2023-05-20T01:47:09;102181.50;;;12.34;87.38
62708;BME280;48769;51.624;5.886;2023-05-20T01:49:34;102170.88;;;12.34;87.63
62708;BME280;48769;51.624;5.886;2023-05-20T01:52:00;102179.88;;;12.30;88.24
62708;BME280;48769;51.624;5.886;2023-05-20T01:54:25;102179.06;;;12.28;88.51
62708;BME280;48769;51.624;5.886;2023-05-20T01:56:51;102183.47;;;12.29;88.53
62708;BME280;48769;51.624;5.886;2023-05-20T01:59:17;102169.41;;;12.27;89.41
62708;BME280;48769;51.624;5.886;2023-05-20T02:01:42;102176.50;;;12.27;89.80
62708;BME280;48769;51.624;5.886;2023-05-20T02:04:08;102169.41;;;12.27;89.81
62708;BME280;48769;51.624;5.886;2023-05-20T02:06:33;102165.72;;;12.31;89.42
62708;BME280;48769;51.624;5.886;2023-05-20T02:08:58;102172.75;;;12.32;89.57
62708;BME280;48769;51.624;5.886;2023-05-20T02:11:24;102172.75;;;12.32;89.31
62708;BME280;48769;51.624;5.886;2023-05-20T02:13:50;102166.53;;;12.33;89.27
62708;BME280;48769;51.624;5.886;2023-05-20T02:16:16;102171.00;;;12.31;89.50
62708;BME280;48769;51.624;5.886;2023-05-20T02:18:41;102167.69;;;12.26;90.21
62708;BME280;48769;51.624;5.886;2023-05-20T02:21:08;102171.25;;;12.25;90.47
62708;BME280;48769;51.624;5.886;2023-05-20T02:23:33;102170.59;;;12.19;90.87
62708;BME280;48769;51.624;5.886;2023-05-20T02:25:59;102166.94;;;12.23;90.78
62708;BME280;48769;51.624;5.886;2023-05-20T02:28:24;102158.41;;;12.14;91.27
62708;BME280;48769;51.624;5.886;2023-05-20T02:30:49;102162.09;;;12.10;91.74
62708;BME280;48769;51.624;5.886;2023-05-20T02:33:15;102166.75;;;12.04;92.42
62708;BME280;48769;51.624;5.886;2023-05-20T02:35:41;102162.41;;;12.01;92.58
62708;BME280;48769;51.624;5.886;2023-05-20T02:38:06;102157.88;;;12.05;92.46
62708;BME280;48769;51.624;5.886;2023-05-20T02:40:31;102157.72;;;12.09;92.47
62708;BME280;48769;51.624;5.886;2023-05-20T02:42:59;102156.78;;;12.10;92.44
62708;BME280;48769;51.624;5.886;2023-05-20T02:45:27;102161.13;;;12.13;92.49
62708;BME280;48769;51.624;5.886;2023-05-20T02:47:53;102171.81;;;12.10;91.98
62708;BME280;48769;51.624;5.886;2023-05-20T02:50:18;102161.34;;;12.07;91.98
62708;BME280;48769;51.624;5.886;2023-05-20T02:52:43;102159.63;;;12.06;92.07
62708;BME280;48769;51.624;5.886;2023-05-20T02:55:10;102154.19;;;12.09;92.02
62708;BME280;48769;51.624;5.886;2023-05-20T02:57:36;102154.19;;;12.09;91.88
62708;BME280;48769;51.624;5.886;2023-05-20T03:00:05;102154.19;;;12.09;91.98
62708;BME280;48769;51.624;5.886;2023-05-20T03:02:32;102164.78;;;12.09;91.76
62708;BME280;48769;51.624;5.886;2023-05-20T03:04:58;102151.59;;;12.07;92.20
62708;BME280;48769;51.624;5.886;2023-05-20T03:07:23;102164.91;;;12.06;92.32
62708;BME280;48769;51.624;5.886;2023-05-20T03:09:49;102161.44;;;12.04;92.28
62708;BME280;48769;51.624;5.886;2023-05-20T03:12:14;102155.44;;;11.99;92.75
62708;BME280;48769;51.624;5.886;2023-05-20T03:14:40;102141.44;;;11.95;93.40
62708;BME280;48769;51.624;5.886;2023-05-20T03:17:05;102155.56;;;11.96;93.20
62708;BME280;48769;51.624;5.886;2023-05-20T03:19:30;102161.66;;;11.98;93.51
62708;BME280;48769;51.624;5.886;2023-05-20T03:21:56;102163.47;;;11.97;93.46
62708;BME280;48769;51.624;5.886;2023-05-20T03:24:22;102158.16;;;11.97;93.15
62708;BME280;48769;51.624;5.886;2023-05-20T03:26:48;102154.66;;;11.97;93.50
62708;BME280;48769;51.624;5.886;2023-05-20T03:29:13;102160.84;;;11.96;93.63
62708;BME280;48769;51.624;5.886;2023-05-20T03:31:38;102166.25;;;11.92;93.42
62708;BME280;48769;51.624;5.886;2023-05-20T03:34:04;102160.16;;;11.90;93.48
62708;BME280;48769;51.624;5.886;2023-05-20T03:36:29;102159.41;;;11.87;94.09
62708;BME280;48769;51.624;5.886;2023-05-20T03:38:55;102160.38;;;11.84;94.10
62708;BME280;48769;51.624;5.886;2023-05-20T03:41:21;102155.09;;;11.84;94.32
62708;BME280;48769;51.624;5.886;2023-05-20T03:43:47;102148.03;;;11.83;94.63
62708;BME280;48769;51.624;5.886;2023-05-20T03:46:15;102157.09;;;11.76;94.63
62708;BME280;48769;51.624;5.886;2023-05-20T03:48:40;102159.81;;;11.75;95.91
62708;BME280;48769;51.624;5.886;2023-05-20T03:51:05;102156.31;;;11.74;95.58
62708;BME280;48769;51.624;5.886;2023-05-20T03:53:31;102158.19;;;11.70;95.73
62708;BME280;48769;51.624;5.886;2023-05-20T03:55:56;102158.31;;;11.67;96.11
62708;BME280;48769;51.624;5.886;2023-05-20T03:58:21;102152.38;;;11.61;96.82
62708;BME280;48769;51.624;5.886;2023-05-20T04:00:47;102155.91;;;11.60;97.38
62708;BME280;48769;51.624;5.886;2023-05-20T04:03:13;102159.47;;;11.59;97.49
62708;BME280;48769;51.624;5.886;2023-05-20T04:05:38;102160.50;;;11.55;98.44
62708;BME280;48769;51.624;5.886;2023-05-20T04:08:04;102158.66;;;11.57;98.35
62708;BME280;48769;51.624;5.886;2023-05-20T04:10:29;102152.47;;;11.58;98.60
62708;BME280;48769;51.624;5.886;2023-05-20T04:12:58;102155.25;;;11.53;99.37
62708;BME280;48769;51.624;5.886;2023-05-20T04:15:24;102155.31;;;11.52;99.84
62708;BME280;48769;51.624;5.886;2023-05-20T04:17:50;102161.53;;;11.51;100.00
62708;BME280;48769;51.624;5.886;2023-05-20T04:20:17;102154.59;;;11.46;100.00
62708;BME280;48769;51.624;5.886;2023-05-20T04:22:43;102162.66;;;11.43;100.00
62708;BME280;48769;51.624;5.886;2023-05-20T04:25:08;102167.06;;;11.43;100.00
62708;BME280;48769;51.624;5.886;2023-05-20T04:27:33;102170.47;;;11.46;100.00
62708;BME280;48769;51.624;5.886;2023-05-20T04:29:59;102178.41;;;11.46;100.00
62708;BME280;48769;51.624;5.886;2023-05-20T04:32:26;102166.59;;;11.57;100.00
62708;BME280;48769;51.624;5.886;2023-05-20T04:34:52;102176.19;;;11.61;100.00
62708;BME280;48769;51.624;5.886;2023-05-20T04:37:20;102164.66;;;11.62;100.00
62708;BME280;48769;51.624;5.886;2023-05-20T04:39:45;102170.06;;;11.59;100.00
62708;BME280;48769;51.624;5.886;2023-05-20T04:42:12;102167.41;;;11.59;100.00
62708;BME280;48769;51.624;5.886;2023-05-20T04:44:37;102164.66;;;11.62;100.00
62708;BME280;48769;51.624;5.886;2023-05-20T04:47:03;102162.56;;;11.72;100.00
62708;BME280;48769;51.624;5.886;2023-05-20T04:49:32;102161.63;;;11.73;100.00
62708;BME280;48769;51.624;5.886;2023-05-20T04:51:57;102164.28;;;11.73;100.00
62708;BME280;48769;51.624;5.886;2023-05-20T04:54:23;102168.47;;;11.80;100.00
62708;BME280;48769;51.624;5.886;2023-05-20T04:56:49;102163.94;;;11.83;100.00
62708;BME280;48769;51.624;5.886;2023-05-20T04:59:15;102168.91;;;11.92;100.00
62708;BME280;48769;51.624;5.886;2023-05-20T05:01:40;102165.16;;;12.23;100.00
62708;BME280;48769;51.624;5.886;2023-05-20T05:04:06;102151.91;;;12.69;100.00
62708;BME280;48769;51.624;5.886;2023-05-20T05:06:31;102155.59;;;13.08;98.60
62708;BME280;48769;51.624;5.886;2023-05-20T05:08:57;102152.31;;;13.46;94.22
62708;BME280;48769;51.624;5.886;2023-05-20T05:11:22;102151.50;;;13.64;92.06
62708;BME280;48769;51.624;5.886;2023-05-20T05:13:48;102143.81;;;13.78;90.21
62708;BME280;48769;51.624;5.886;2023-05-20T05:16:13;102145.91;;;14.11;89.00
62708;BME280;48769;51.624;5.886;2023-05-20T05:18:38;102139.84;;;14.45;86.68
62708;BME280;48769;51.624;5.886;2023-05-20T05:21:05;102144.78;;;14.55;85.13
62708;BME280;48769;51.624;5.886;2023-05-20T05:23:31;102139.94;;;14.82;83.13
62708;BME280;48769;51.624;5.886;2023-05-20T05:25:57;102137.06;;;15.04;82.10
62708;BME280;48769;51.624;5.886;2023-05-20T05:28:23;102127.63;;;15.33;80.69
62708;BME280;48769;51.624;5.886;2023-05-20T05:30:48;102123.22;;;15.84;78.51
62708;BME280;48769;51.624;5.886;2023-05-20T05:33:14;102123.75;;;15.91;77.19
62708;BME280;48769;51.624;5.886;2023-05-20T05:35:40;102128.13;;;16.09;75.93
62708;BME280;48769;51.624;5.886;2023-05-20T05:38:06;102131.84;;;16.38;75.31
62708;BME280;48769;51.624;5.886;2023-05-20T05:40:32;102126.66;;;16.67;73.47
62708;BME280;48769;51.624;5.886;2023-05-20T05:42:57;102122.78;;;16.72;72.99
62708;BME280;48769;51.624;5.886;2023-05-20T05:45:22;102126.44;;;16.87;72.19
62708;BME280;48769;51.624;5.886;2023-05-20T05:47:48;102110.50;;;17.16;70.77
62708;BME280;48769;51.624;5.886;2023-05-20T05:50:13;102113.00;;;17.49;69.56
62708;BME280;48769;51.624;5.886;2023-05-20T05:52:38;102111.34;;;17.77;68.98
62708;BME280;48769;51.624;5.886;2023-05-20T05:55:04;102106.47;;;18.12;66.00
62708;BME280;48769;51.624;5.886;2023-05-20T05:57:29;102104.38;;;18.17;64.72
62708;BME280;48769;51.624;5.886;2023-05-20T05:59:55;102108.59;;;18.48;63.69
62708;BME280;48769;51.624;5.886;2023-05-20T06:02:21;102105.06;;;18.48;63.32
62708;BME280;48769;51.624;5.886;2023-05-20T06:04:46;102101.53;;;18.88;62.01
62708;BME280;48769;51.624;5.886;2023-05-20T06:07:11;102087.66;;;19.09;60.42
62708;BME280;48769;51.624;5.886;2023-05-20T06:09:37;102088.31;;;19.25;59.72
62708;BME280;48769;51.624;5.886;2023-05-20T06:12:03;102079.44;;;19.25;59.18
62708;BME280;48769;51.624;5.886;2023-05-20T06:14:28;102085.06;;;19.07;60.37
62708;BME280;48769;51.624;5.886;2023-05-20T06:16:54;102086.19;;;19.30;59.40
62708;BME280;48769;51.624;5.886;2023-05-20T06:19:19;102081.72;;;19.69;58.53
62708;BME280;48769;51.624;5.886;2023-05-20T06:21:45;102075.06;;;19.88;57.49
62708;BME280;48769;51.624;5.886;2023-05-20T06:24:10;102069.34;;;20.42;56.84
62708;BME280;48769;51.624;5.886;2023-05-20T06:26:35;102067.50;;;20.55;54.34
62708;BME280;48769;51.624;5.886;2023-05-20T06:29:02;102062.13;;;20.55;53.73
62708;BME280;48769;51.624;5.886;2023-05-20T06:31:27;102065.72;;;20.91;53.69
62708;BME280;48769;51.624;5.886;2023-05-20T06:33:54;102055.44;;;20.96;53.16
62708;BME280;48769;51.624;5.886;2023-05-20T06:36:19;102054.88;;;21.39;52.63
62708;BME280;48769;51.624;5.886;2023-05-20T06:38:45;102052.84;;;21.18;52.42
62708;BME280;48769;51.624;5.886;2023-05-20T06:41:10;102038.53;;;21.07;52.74
62708;BME280;48769;51.624;5.886;2023-05-20T06:43:36;102039.91;;;21.23;52.12
62708;BME280;48769;51.624;5.886;2023-05-20T06:46:01;102036.47;;;21.10;51.09
62708;BME280;48769;51.624;5.886;2023-05-20T06:48:26;102031.78;;;20.42;52.33
62708;BME280;48769;51.624;5.886;2023-05-20T06:50:52;102038.53;;;20.71;52.07
62708;BME280;48769;51.624;5.886;2023-05-20T06:53:17;102027.47;;;21.34;50.86
62708;BME280;48769;51.624;5.886;2023-05-20T06:55:42;102034.84;;;21.43;50.36
62708;BME280;48769;51.624;5.886;2023-05-20T06:58:08;102027.88;;;21.40;49.38
62708;BME280;48769;51.624;5.886;2023-05-20T07:00:33;102033.38;;;21.95;48.48
62708;BME280;48769;51.624;5.886;2023-05-20T07:02:58;102021.34;;;22.22;48.08
62708;BME280;48769;51.624;5.886;2023-05-20T07:05:24;102022.22;;;22.86;46.68
62708;BME280;48769;51.624;5.886;2023-05-20T07:07:49;102015.81;;;22.67;45.90
62708;BME280;48769;51.624;5.886;2023-05-20T07:10:15;102021.34;;;23.18;45.17
62708;BME280;48769;51.624;5.886;2023-05-20T07:12:40;102018.50;;;23.20;44.17
62708;BME280;48769;51.624;5.886;2023-05-20T07:15:07;102020.72;;;22.94;44.65
62708;BME280;48769;51.624;5.886;2023-05-20T07:17:32;102027.09;;;22.93;44.58
62708;BME280;48769;51.624;5.886;2023-05-20T07:19:58;102020.38;;;23.29;43.89
62708;BME280;48769;51.624;5.886;2023-05-20T07:22:23;102015.03;;;23.60;42.78
62708;BME280;48769;51.624;5.886;2023-05-20T07:24:48;101999.34;;;23.44;42.31
62708;BME280;48769;51.624;5.886;2023-05-20T07:27:14;102010.03;;;23.86;41.81
62708;BME280;48769;51.624;5.886;2023-05-20T07:29:39;102005.22;;;23.89;41.94
62708;BME280;48769;51.624;5.886;2023-05-20T07:32:05;102004.63;;;23.86;41.74
62708;BME280;48769;51.624;5.886;2023-05-20T07:34:30;102007.25;;;24.07;41.75
62708;BME280;48769;51.624;5.886;2023-05-20T07:36:56;101993.81;;;24.55;40.70
62708;BME280;48769;51.624;5.886;2023-05-20T07:39:22;101991.28;;;24.44;39.46
62708;BME280;48769;51.624;5.886;2023-05-20T07:41:48;101997.59;;;24.14;40.81
62708;BME280;48769;51.624;5.886;2023-05-20T07:44:13;101999.63;;;23.81;41.85
62708;BME280;48769;51.624;5.886;2023-05-20T07:46:39;101994.09;;;23.73;42.02
62708;BME280;48769;51.624;5.886;2023-05-20T07:49:06;101994.94;;;23.52;41.63
62708;BME280;48769;51.624;5.886;2023-05-20T07:51:31;101994.53;;;23.47;42.25
62708;BME280;48769;51.624;5.886;2023-05-20T07:53:56;101994.03;;;22.70;43.32
62708;BME280;48769;51.624;5.886;2023-05-20T07:56:22;102000.59;;;22.77;44.96
62708;BME280;48769;51.624;5.886;2023-05-20T07:58:52;101995.19;;;22.77;42.59
62708;BME280;48769;51.624;5.886;2023-05-20T08:01:17;101995.03;;;22.36;43.22
62708;BME280;48769;51.624;5.886;2023-05-20T08:03:43;101996.28;;;22.10;44.14
62708;BME280;48769;51.624;5.886;2023-05-20T08:06:08;101994.72;;;21.96;44.39
62708;BME280;48769;51.624;5.886;2023-05-20T08:08:33;101997.66;;;22.04;45.30
62708;BME280;48769;51.624;5.886;2023-05-20T08:11:00;101985.88;;;22.05;45.47
62708;BME280;48769;51.624;5.886;2023-05-20T08:13:26;101984.69;;;21.87;45.29
62708;BME280;48769;51.624;5.886;2023-05-20T08:15:52;101999.13;;;21.97;45.27
62708;BME280;48769;51.624;5.886;2023-05-20T08:18:18;101995.97;;;21.81;45.67
62708;BME280;48769;51.624;5.886;2023-05-20T08:20:44;101983.75;;;21.65;45.67
62708;BME280;48769;51.624;5.886;2023-05-20T08:23:09;101996.19;;;21.33;46.66
62708;BME280;48769;51.624;5.886;2023-05-20T08:25:35;101992.81;;;21.53;45.92
62708;BME280;48769;51.624;5.886;2023-05-20T08:28:02;101986.19;;;21.35;46.57
62708;BME280;48769;51.624;5.886;2023-05-20T08:30:29;102001.56;;;21.33;46.62
62708;BME280;48769;51.624;5.886;2023-05-20T08:32:55;101992.31;;;21.37;46.26
62708;BME280;48769;51.624;5.886;2023-05-20T08:35:21;101991.72;;;21.56;46.23
62708;BME280;48769;51.624;5.886;2023-05-20T08:37:46;101992.31;;;21.37;45.92
62708;BME280;48769;51.624;5.886;2023-05-20T08:40:12;101986.91;;;21.26;46.73
62708;BME280;48769;51.624;5.886;2023-05-20T08:42:42;101980.84;;;21.46;46.51
62708;BME280;48769;51.624;5.886;2023-05-20T08:45:10;101983.47;;;21.23;47.64
62708;BME280;48769;51.624;5.886;2023-05-20T08:47:38;101987.59;;;21.05;47.74
62708;BME280;48769;51.624;5.886;2023-05-20T08:50:05;101972.09;;;20.62;48.73
62708;BME280;48769;51.624;5.886;2023-05-20T08:52:32;101978.19;;;21.11;49.15
62708;BME280;48769;51.624;5.886;2023-05-20T08:54:59;101965.38;;;21.14;48.15
62708;BME280;48769;51.624;5.886;2023-05-20T08:57:25;101969.53;;;21.07;48.42
62708;BME280;48769;51.624;5.886;2023-05-20T08:59:51;101966.34;;;21.24;47.18
62708;BME280;48769;51.624;5.886;2023-05-20T09:02:17;101971.38;;;21.18;48.16
62708;BME280;48769;51.624;5.886;2023-05-20T09:04:42;101963.75;;;20.89;47.82
62708;BME280;48769;51.624;5.886;2023-05-20T09:07:08;101954.63;;;21.03;47.65
62708;BME280;48769;51.624;5.886;2023-05-20T09:09:34;101971.25;;;21.19;47.48
62708;BME280;48769;51.624;5.886;2023-05-20T09:12:02;101960.03;;;21.26;45.38
62708;BME280;48769;51.624;5.886;2023-05-20T09:14:29;101957.81;;;21.31;46.63
62708;BME280;48769;51.624;5.886;2023-05-20T09:16:54;101959.88;;;21.05;46.14
62708;BME280;48769;51.624;5.886;2023-05-20T09:21:51;101954.91;;;21.22;46.22
62708;BME280;48769;51.624;5.886;2023-05-20T09:24:21;101959.31;;;21.46;46.86
62708;BME280;48769;51.624;5.886;2023-05-20T09:26:47;101954.19;;;21.65;45.91
62708;BME280;48769;51.624;5.886;2023-05-20T09:29:12;101954.16;;;21.54;46.31
62708;BME280;48769;51.624;5.886;2023-05-20T09:31:37;101958.91;;;21.17;46.83
62708;BME280;48769;51.624;5.886;2023-05-20T09:34:03;101957.94;;;21.29;46.90
62708;BME280;48769;51.624;5.886;2023-05-20T09:36:28;101961.97;;;21.23;46.08
62708;BME280;48769;51.624;5.886;2023-05-20T09:39:00;101955.38;;;21.28;46.90
62708;BME280;48769;51.624;5.886;2023-05-20T09:41:40;101948.78;;;21.54;46.16
62708;BME280;48769;51.624;5.886;2023-05-20T09:44:10;101952.72;;;21.61;46.58
62708;BME280;48769;51.624;5.886;2023-05-20T09:46:37;101952.94;;;21.81;47.43
62708;BME280;48769;51.624;5.886;2023-05-20T09:49:03;101946.56;;;21.82;45.36
62708;BME280;48769;51.624;5.886;2023-05-20T09:51:30;101952.97;;;21.36;46.35
62708;BME280;48769;51.624;5.886;2023-05-20T09:53:57;101967.59;;;21.77;46.90
62708;BME280;48769;51.624;5.886;2023-05-20T09:56:24;101959.66;;;21.64;46.31
62708;BME280;48769;51.624;5.886;2023-05-20T09:58:49;101956.50;;;21.47;46.15
62708;BME280;48769;51.624;5.886;2023-05-20T10:01:16;101956.38;;;21.49;47.38
62708;BME280;48769;51.624;5.886;2023-05-20T10:03:43;101944.13;;;21.67;46.99
62708;BME280;48769;51.624;5.886;2023-05-20T10:09:04;101936.41;;;22.29;44.74
62708;BME280;48769;51.624;5.886;2023-05-20T10:11:50;101938.53;;;22.14;45.12
62708;BME280;48769;51.624;5.886;2023-05-20T10:14:45;101928.84;;;21.90;45.25
62708;BME280;48769;51.624;5.886;2023-05-20T10:20:00;101927.50;;;21.74;46.81
62708;BME280;48769;51.624;5.886;2023-05-20T10:22:27;101929.16;;;21.42;48.05
62708;BME280;48769;51.624;5.886;2023-05-20T10:25:23;101915.56;;;21.55;46.58
62708;BME280;48769;51.624;5.886;2023-05-20T10:27:50;101924.13;;;21.38;46.89
62708;BME280;48769;51.624;5.886;2023-05-20T10:30:20;101917.84;;;21.15;47.75
62708;BME280;48769;51.624;5.886;2023-05-20T10:32:53;101925.84;;;21.39;46.85
62708;BME280;48769;51.624;5.886;2023-05-20T10:35:22;101919.34;;;21.30;47.27
62708;BME280;48769;51.624;5.886;2023-05-20T10:37:51;101918.50;;;21.52;46.24
62708;BME280;48769;51.624;5.886;2023-05-20T10:40:18;101918.88;;;21.59;48.62
62708;BME280;48769;51.624;5.886;2023-05-20T10:42:44;101911.28;;;21.53;47.16
62708;BME280;48769;51.624;5.886;2023-05-20T10:45:11;101907.72;;;21.18;46.72
62708;BME280;48769;51.624;5.886;2023-05-20T10:47:41;101915.09;;;21.39;47.61
62708;BME280;48769;51.624;5.886;2023-05-20T10:50:27;101906.63;;;21.66;47.05
62708;BME280;48769;51.624;5.886;2023-05-20T10:52:53;101908.22;;;21.57;47.24
62708;BME280;48769;51.624;5.886;2023-05-20T10:55:21;101911.41;;;21.51;47.44
62708;BME280;48769;51.624;5.886;2023-05-20T10:57:46;101903.03;;;21.77;47.03
62708;BME280;48769;51.624;5.886;2023-05-20T11:00:12;101911.31;;;22.39;47.02
62708;BME280;48769;51.624;5.886;2023-05-20T11:02:39;101894.66;;;22.02;47.08
62708;BME280;48769;51.624;5.886;2023-05-20T11:05:10;101890.91;;;22.26;45.87
62708;BME280;48769;51.624;5.886;2023-05-20T11:07:36;101888.38;;;22.45;45.88
62708;BME280;48769;51.624;5.886;2023-05-20T11:10:01;101889.34;;;22.65;46.38
62708;BME280;48769;51.624;5.886;2023-05-20T11:12:32;101885.84;;;22.74;45.55
62708;BME280;48769;51.624;5.886;2023-05-20T11:14:57;101889.28;;;22.55;44.29
62708;BME280;48769;51.624;5.886;2023-05-20T11:17:22;101891.50;;;21.97;45.43
62708;BME280;48769;51.624;5.886;2023-05-20T11:19:48;101887.78;;;21.66;46.04
62708;BME280;48769;51.624;5.886;2023-05-20T11:22:13;101889.84;;;21.74;45.96
62708;BME280;48769;51.624;5.886;2023-05-20T11:24:38;101882.59;;;21.85;45.94
62708;BME280;48769;51.624;5.886;2023-05-20T11:27:04;101887.59;;;21.90;46.35
62708;BME280;48769;51.624;5.886;2023-05-20T11:29:30;101880.00;;;21.95;46.08
62708;BME280;48769;51.624;5.886;2023-05-20T11:31:56;101884.19;;;21.88;46.37
62708;BME280;48769;51.624;5.886;2023-05-20T11:34:22;101885.03;;;21.88;46.74
62708;BME280;48769;51.624;5.886;2023-05-20T11:36:48;101888.47;;;21.90;47.39
62708;BME280;48769;51.624;5.886;2023-05-20T11:39:20;101892.78;;;21.70;47.54
62708;BME280;48769;51.624;5.886;2023-05-20T11:41:45;101888.78;;;21.65;47.27
62708;BME280;48769;51.624;5.886;2023-05-20T11:44:11;101885.72;;;21.69;48.13
62708;BME280;48769;51.624;5.886;2023-05-20T11:46:44;101878.72;;;21.78;49.29
62708;BME280;48769;51.624;5.886;2023-05-20T11:49:12;101882.38;;;21.77;48.66
62708;BME280;48769;51.624;5.886;2023-05-20T11:51:37;101878.81;;;21.88;48.13
62708;BME280;48769;51.624;5.886;2023-05-20T11:54:04;101872.06;;;21.61;47.97
62708;BME280;48769;51.624;5.886;2023-05-20T11:56:35;101875.44;;;21.63;48.80
62708;BME280;48769;51.624;5.886;2023-05-20T11:59:02;101874.75;;;21.50;48.52
62708;BME280;48769;51.624;5.886;2023-05-20T12:01:30;101866.44;;;21.64;47.57
62708;BME280;48769;51.624;5.886;2023-05-20T12:03:55;101868.03;;;21.44;48.35
62708;BME280;48769;51.624;5.886;2023-05-20T12:06:21;101865.94;;;21.48;48.32
62708;BME280;48769;51.624;5.886;2023-05-20T12:08:46;101874.09;;;21.58;49.86
62708;BME280;48769;51.624;5.886;2023-05-20T12:11:12;101861.31;;;21.50;49.25
62708;BME280;48769;51.624;5.886;2023-05-20T12:13:38;101868.38;;;21.62;49.62
62708;BME280;48769;51.624;5.886;2023-05-20T12:16:04;101866.06;;;21.90;48.96
62708;BME280;48769;51.624;5.886;2023-05-20T12:18:30;101869.41;;;22.14;47.53
62708;BME280;48769;51.624;5.886;2023-05-20T12:20:55;101868.50;;;21.93;47.50
62708;BME280;48769;51.624;5.886;2023-05-20T12:23:21;101869.13;;;21.53;48.54
62708;BME280;48769;51.624;5.886;2023-05-20T12:25:46;101857.06;;;21.80;47.93
62708;BME280;48769;51.624;5.886;2023-05-20T12:28:14;101858.97;;;21.57;48.61
62708;BME280;48769;51.624;5.886;2023-05-20T12:30:40;101858.22;;;21.98;48.87
62708;BME280;48769;51.624;5.886;2023-05-20T12:33:06;101852.34;;;22.04;48.14
62708;BME280;48769;51.624;5.886;2023-05-20T12:35:41;101855.72;;;22.06;47.18
62708;BME280;48769;51.624;5.886;2023-05-20T12:38:07;101844.03;;;21.96;48.30
62708;BME280;48769;51.624;5.886;2023-05-20T12:40:34;101849.94;;;22.22;49.08
62708;BME280;48769;51.624;5.886;2023-05-20T12:43:00;101844.38;;;22.35;47.58
62708;BME280;48769;51.624;5.886;2023-05-20T12:45:26;101840.97;;;22.33;47.92
62708;BME280;48769;51.624;5.886;2023-05-20T12:47:53;101840.06;;;22.11;46.96
62708;BME280;48769;51.624;5.886;2023-05-20T12:50:18;101843.00;;;22.08;47.14
62708;BME280;48769;51.624;5.886;2023-05-20T12:52:44;101846.06;;;21.83;47.72
62708;BME280;48769;51.624;5.886;2023-05-20T12:55:10;101853.91;;;21.75;47.98